createdAt,value
2022-09-28T00:01:09.205Z,96214.63
2022-09-28T00:03:37.376Z,96215.25
2022-09-28T00:06:08.609Z,96221.88
2022-09-28T00:08:37.076Z,96213.00
2022-09-28T00:11:05.839Z,96209.75
2022-09-28T00:13:34.095Z,96204.41
2022-09-28T00:16:03.868Z,96188.78
2022-09-28T00:18:32.232Z,96188.31
2022-09-28T00:21:04.850Z,96188.06
2022-09-28T00:23:34.370Z,96188.78
2022-09-28T00:26:05.844Z,96181.44
2022-09-28T00:28:33.596Z,96175.03
2022-09-28T00:31:01.308Z,96169.91
2022-09-28T00:33:28.942Z,96165.38
2022-09-28T00:35:57.489Z,96156.63
2022-09-28T00:38:28.348Z,96155.09
2022-09-28T00:40:57.336Z,96149.03
2022-09-28T00:43:25.575Z,96147.06
2022-09-28T00:46:00.006Z,96144.63
2022-09-28T00:48:31.261Z,96150.69
2022-09-28T00:51:01.448Z,96153.94
2022-09-28T00:53:34.699Z,96150.47
2022-09-28T00:56:09.033Z,96145.81
2022-09-28T00:58:40.518Z,96140.88
2022-09-28T01:01:08.448Z,96134.00
2022-09-28T01:03:36.201Z,96135.91
2022-09-28T01:06:05.481Z,96123.56
2022-09-28T01:08:34.458Z,96117.25
2022-09-28T01:11:03.688Z,96107.63
2022-09-28T01:13:33.133Z,96096.19
2022-09-28T01:16:10.310Z,96098.16
2022-09-28T01:18:46.670Z,96087.56
2022-09-28T01:21:19.718Z,96075.69
2022-09-28T01:24:10.302Z,96071.00
2022-09-28T01:26:49.350Z,96060.31
2022-09-28T01:29:29.509Z,96052.50
2022-09-28T01:32:02.754Z,96051.91
2022-09-28T01:34:38.870Z,96043.53
2022-09-28T01:37:10.677Z,96050.06
2022-09-28T01:39:42.944Z,96038.97
2022-09-28T01:42:17.787Z,96036.53
2022-09-28T01:44:48.890Z,96024.09
2022-09-28T01:47:22.334Z,96021.88
2022-09-28T01:49:55.163Z,96014.16
2022-09-28T01:52:27.875Z,96014.97
2022-09-28T01:55:01.418Z,96009.63
2022-09-28T01:57:35.304Z,96000.75
2022-09-28T02:00:08.104Z,95998.31
2022-09-28T02:02:40.683Z,95995.06
2022-09-28T02:05:13.879Z,96000.88
2022-09-28T02:07:45.678Z,95995.63
2022-09-28T02:10:16.310Z,95996.94
2022-09-28T02:12:49.507Z,95983.88
2022-09-28T02:15:21.659Z,95979.06
2022-09-28T02:17:50.034Z,95979.34
2022-09-28T02:20:18.553Z,95968.34
2022-09-28T02:22:50.467Z,95964.06
2022-09-28T02:25:25.137Z,95957.56
2022-09-28T02:27:59.335Z,95956.25
2022-09-28T02:30:27.458Z,95959.09
2022-09-28T02:32:58.947Z,95963.16
2022-09-28T02:35:26.639Z,95955.94
2022-09-28T02:37:55.172Z,95948.22
2022-09-28T02:40:26.526Z,95946.75
2022-09-28T02:43:03.803Z,95944.16
2022-09-28T02:45:40.800Z,95941.56
2022-09-28T02:48:24.051Z,95948.00
2022-09-28T02:51:12.976Z,95934.00
2022-09-28T02:53:58.663Z,95944.22
2022-09-28T02:56:48.960Z,95941.31
2022-09-28T02:59:33.248Z,95926.06
2022-09-28T03:02:11.817Z,95919.13
2022-09-28T03:04:48.016Z,95914.00
2022-09-28T03:07:23.872Z,95911.53
2022-09-28T03:09:59.813Z,95905.69
2022-09-28T03:12:29.303Z,95909.09
2022-09-28T03:15:14.921Z,95896.84
2022-09-28T03:17:42.465Z,95896.84
2022-09-28T03:20:12.111Z,95894.75
2022-09-28T03:22:39.874Z,95887.75
2022-09-28T03:25:08.961Z,95887.75
2022-09-28T03:27:36.638Z,95882.16
2022-09-28T03:30:05.285Z,95877.34
2022-09-28T03:32:34.162Z,95874.69
2022-09-28T03:35:01.805Z,95872.50
2022-09-28T03:37:29.656Z,95869.22
2022-09-28T03:39:57.239Z,95870.03
2022-09-28T03:42:24.854Z,95871.91
2022-09-28T03:44:52.493Z,95869.22
2022-09-28T03:47:20.251Z,95869.22
2022-09-28T03:49:49.289Z,95846.50
2022-09-28T03:52:16.819Z,95855.69
2022-09-28T03:54:48.915Z,95848.03
2022-09-28T03:57:16.836Z,95846.19
2022-09-28T03:59:44.365Z,95837.56
2022-09-28T04:02:12.028Z,95826.69
2022-09-28T04:04:39.645Z,95818.63
2022-09-28T04:07:08.545Z,95819.78
2022-09-28T04:09:36.090Z,95812.72
2022-09-28T04:12:04.576Z,95808.19
2022-09-28T04:14:32.335Z,95807.13
2022-09-28T04:16:59.856Z,95803.97
2022-09-28T04:19:27.720Z,95809.00
2022-09-28T04:21:55.230Z,95796.66
2022-09-28T04:24:24.168Z,95793.47
2022-09-28T04:26:51.671Z,95791.13
2022-09-28T04:29:18.932Z,95781.72
2022-09-28T04:31:49.595Z,95780.66
2022-09-28T04:34:19.429Z,95782.53
2022-09-28T04:36:47.840Z,95788.13
2022-09-28T04:39:17.006Z,95784.94
2022-09-28T04:41:48.733Z,95789.25
2022-09-28T04:44:16.301Z,95783.91
2022-09-28T04:46:43.866Z,95779.34
2022-09-28T04:49:11.972Z,95783.41
2022-09-28T04:51:39.523Z,95773.75
2022-09-28T04:54:07.062Z,95780.09
2022-09-28T04:56:34.570Z,95775.31
2022-09-28T04:59:03.452Z,95764.81
2022-09-28T05:01:31.213Z,95769.38
2022-09-28T05:03:58.818Z,95772.78
2022-09-28T05:06:28.514Z,95767.66
2022-09-28T05:08:57.294Z,95761.81
2022-09-28T05:11:24.887Z,95759.97
2022-09-28T05:13:52.427Z,95752.47
2022-09-28T05:16:21.667Z,95754.59
2022-09-28T05:18:49.314Z,95762.78
2022-09-28T05:21:19.484Z,95755.88
2022-09-28T05:23:48.084Z,95744.13
2022-09-28T05:26:15.716Z,95737.22
2022-09-28T05:28:44.573Z,95740.69
2022-09-28T05:31:12.170Z,95762.38
2022-09-28T05:33:41.256Z,95763.44
2022-09-28T05:36:10.772Z,95760.81
2022-09-28T05:38:38.667Z,95768.09
2022-09-28T05:41:06.979Z,95772.84
2022-09-28T05:43:34.870Z,95767.25
2022-09-28T05:46:02.463Z,95772.84
2022-09-28T05:48:30.042Z,95770.75
2022-09-28T05:50:59.680Z,95773.44
2022-09-28T05:53:27.275Z,95766.44
2022-09-28T05:55:58.713Z,95763.50
2022-09-28T05:58:26.224Z,95760.28
2022-09-28T06:00:55.495Z,95754.34
2022-09-28T06:03:23.479Z,95753.47
2022-09-28T06:05:51.386Z,95755.41
2022-09-28T06:08:20.279Z,95755.47
2022-09-28T06:10:47.839Z,95759.97
2022-09-28T06:13:15.362Z,95749.38
2022-09-28T06:15:43.721Z,95755.16
2022-09-28T06:18:14.835Z,95766.84
2022-09-28T06:20:42.730Z,95761.91
2022-09-28T06:23:10.449Z,95768.94
2022-09-28T06:25:39.434Z,95770.91
2022-09-28T06:28:10.339Z,95783.91
2022-09-28T06:30:39.061Z,95789.84
2022-09-28T06:33:08.684Z,95798.03
2022-09-28T06:35:36.606Z,95788.84
2022-09-28T06:38:04.515Z,95793.78
2022-09-28T06:40:33.010Z,95792.34
2022-09-28T06:43:03.221Z,95792.09
2022-09-28T06:45:31.763Z,95791.47
2022-09-28T06:48:00.856Z,95792.25
2022-09-28T06:50:32.232Z,95810.28
2022-09-28T06:53:00.742Z,95803.06
2022-09-28T06:55:29.497Z,95800.47
2022-09-28T06:58:02.420Z,95805.50
2022-09-28T07:00:32.876Z,95803.47
2022-09-28T07:03:01.014Z,95808.50
2022-09-28T07:05:29.878Z,95815.81
2022-09-28T07:07:58.208Z,95815.22
2022-09-28T07:10:28.393Z,95823.34
2022-09-28T07:12:57.525Z,95833.75
2022-09-28T07:15:27.029Z,95830.13
2022-09-28T07:18:02.717Z,95821.66
2022-09-28T07:20:33.740Z,95826.28
2022-09-28T07:23:17.125Z,95831.72
2022-09-28T07:25:48.776Z,95827.66
2022-09-28T07:28:17.225Z,95832.00
2022-09-28T07:30:46.200Z,95834.72
2022-09-28T07:33:15.923Z,95848.63
2022-09-28T07:35:52.165Z,95848.13
2022-09-28T07:38:19.861Z,95849.25
2022-09-28T07:41:05.648Z,95856.56
2022-09-28T07:43:33.410Z,95868.41
2022-09-28T07:46:02.401Z,95877.19
2022-09-28T07:48:37.850Z,95889.44
2022-09-28T07:51:05.738Z,95894.66
2022-09-28T07:53:33.368Z,95899.41
2022-09-28T07:56:08.575Z,95903.50
2022-09-28T07:58:37.781Z,95908.25
2022-09-28T08:01:08.875Z,95900.03
2022-09-28T08:03:36.708Z,95907.53
2022-09-28T08:06:06.994Z,95908.75
2022-09-28T08:08:35.724Z,95904.44
2022-09-28T08:11:04.025Z,95912.19
2022-09-28T08:13:31.635Z,95914.59
2022-09-28T08:16:02.603Z,95910.63
2022-09-28T08:18:31.524Z,95919.19
2022-09-28T08:21:16.416Z,95924.47
2022-09-28T08:23:44.194Z,95929.66
2022-09-28T08:26:15.390Z,95931.34
2022-09-28T08:28:45.039Z,95948.16
2022-09-28T08:31:12.745Z,95942.06
2022-09-28T08:33:42.781Z,95941.16
2022-09-28T08:36:11.249Z,95943.06
2022-09-28T08:38:38.780Z,95946.31
2022-09-28T08:41:16.492Z,95946.19
2022-09-28T08:44:04.430Z,95948.88
2022-09-28T08:46:36.787Z,95946.78
2022-09-28T08:49:25.019Z,95951.19
2022-09-28T08:51:59.201Z,95954.69
2022-09-28T08:54:34.980Z,95965.06
2022-09-28T08:57:06.153Z,95966.06
2022-09-28T08:59:46.590Z,95968.84
2022-09-28T09:02:20.241Z,95968.88
2022-09-28T09:04:51.576Z,95966.53
2022-09-28T09:07:32.771Z,95970.69
2022-09-28T09:10:10.421Z,95974.56
2022-09-28T09:12:45.558Z,95973.06
2022-09-28T09:15:39.671Z,95984.25
2022-09-28T09:18:20.052Z,95990.38
2022-09-28T09:20:54.808Z,95985.72
2022-09-28T09:23:36.314Z,95993.41
2022-09-28T09:26:13.157Z,95999.34
2022-09-28T09:29:03.850Z,95999.47
2022-09-28T09:31:45.757Z,96003.53
2022-09-28T09:34:29.533Z,95997.22
2022-09-28T09:37:13.619Z,96001.88
2022-09-28T09:39:55.903Z,96003.53
2022-09-28T09:42:38.019Z,96010.19
2022-09-28T09:45:26.768Z,96010.13
2022-09-28T09:48:01.507Z,96001.56
2022-09-28T09:50:34.664Z,96002.53
2022-09-28T09:53:15.507Z,96006.03
2022-09-28T09:55:46.441Z,96008.66
2022-09-28T09:58:19.076Z,96013.06
2022-09-28T10:00:50.812Z,96012.59
2022-09-28T10:03:23.254Z,96013.09
2022-09-28T10:05:57.564Z,96016.25
2022-09-28T10:08:28.251Z,96024.97
2022-09-28T10:11:05.606Z,96023.47
2022-09-28T10:13:33.960Z,96022.41
2022-09-28T10:16:02.327Z,96032.09
2022-09-28T10:18:30.117Z,96019.38
2022-09-28T10:20:57.681Z,96029.69
2022-09-28T10:23:29.786Z,96032.19
2022-09-28T10:26:03.241Z,96041.72
2022-09-28T10:28:36.708Z,96035.59
2022-09-28T10:31:35.034Z,96038.47
2022-09-28T10:34:02.956Z,96032.72
2022-09-28T10:36:37.927Z,96035.03
2022-09-28T10:39:07.394Z,96043.34
2022-09-28T10:41:34.925Z,96039.28
2022-09-28T10:44:07.360Z,96048.91
2022-09-28T10:46:36.880Z,96048.88
2022-09-28T10:49:07.725Z,96044.25
2022-09-28T10:51:47.239Z,96044.66
2022-09-28T10:54:18.348Z,96050.84
2022-09-28T10:56:46.888Z,96050.56
2022-09-28T10:59:25.852Z,96053.25
2022-09-28T11:01:56.698Z,96045.72
2022-09-28T11:04:28.619Z,96043.50
2022-09-28T11:09:31.434Z,96039.47
2022-09-28T11:12:00.429Z,96040.94
2022-09-28T11:14:38.350Z,96035.13
2022-09-28T11:17:19.742Z,96032.78
2022-09-28T11:19:47.353Z,96033.38
2022-09-28T11:22:28.808Z,96037.66
2022-09-28T11:25:21.087Z,96027.88
2022-09-28T11:27:58.251Z,96039.63
2022-09-28T11:30:29.332Z,96045.81
2022-09-28T11:33:04.031Z,96050.66
2022-09-28T11:35:45.069Z,96048.94
2022-09-28T11:38:40.519Z,96044.72
2022-09-28T11:41:22.070Z,96046.53
2022-09-28T11:44:14.334Z,96045.00
2022-09-28T11:46:50.733Z,96037.50
2022-09-28T11:49:34.303Z,96028.53
2022-09-28T11:52:07.739Z,96028.94
2022-09-28T11:54:42.078Z,96034.72
2022-09-28T11:57:19.137Z,96032.31
2022-09-28T11:59:55.216Z,96038.50
2022-09-28T12:02:26.876Z,96032.44
2022-09-28T12:05:00.276Z,96033.22
2022-09-28T12:07:33.922Z,96033.03
2022-09-28T12:10:10.432Z,96036.03
2022-09-28T12:12:47.614Z,96033.66
2022-09-28T12:15:19.723Z,96028.84
2022-09-28T12:17:51.502Z,96032.31
2022-09-28T12:20:23.740Z,96040.84
2022-09-28T12:23:02.848Z,96044.50
2022-09-28T12:25:37.799Z,96044.00
2022-09-28T12:28:14.670Z,96042.94
2022-09-28T12:30:44.879Z,96046.34
2022-09-28T12:33:15.252Z,96052.25
2022-09-28T12:35:58.215Z,96052.34
2022-09-28T12:39:08.426Z,96050.22
2022-09-28T12:41:50.061Z,96053.66
2022-09-28T12:44:41.496Z,96047.31
2022-09-28T12:47:22.903Z,96045.44
2022-09-28T12:53:07.867Z,96042.88
2022-09-28T12:55:47.837Z,96047.31
2022-09-28T12:58:29.604Z,96044.78
2022-09-28T13:01:12.302Z,96049.09
2022-09-28T13:03:57.971Z,96043.88
2022-09-28T13:06:43.941Z,96047.53
2022-09-28T13:09:19.903Z,96050.94
2022-09-28T13:11:56.282Z,96047.41
2022-09-28T13:14:46.655Z,96048.97
2022-09-28T13:17:25.680Z,96058.09
2022-09-28T13:19:59.369Z,96053.03
2022-09-28T13:22:39.952Z,96055.66
2022-09-28T13:25:16.601Z,96052.72
2022-09-28T13:27:49.585Z,96056.16
2022-09-28T13:30:18.001Z,96047.41
2022-09-28T13:32:47.834Z,96050.03
2022-09-28T13:35:19.321Z,96050.78
2022-09-28T13:37:47.545Z,96044.34
2022-09-28T13:40:16.227Z,96054.44
2022-09-28T13:43:05.193Z,96053.97
2022-09-28T13:45:53.917Z,96047.16
2022-09-28T13:48:29.258Z,96058.69
2022-09-28T13:51:22.006Z,96055.09
2022-09-28T13:54:15.745Z,96062.13
2022-09-28T13:56:55.095Z,96051.91
2022-09-28T13:59:27.681Z,96053.66
2022-09-28T14:02:04.276Z,96057.44
2022-09-28T14:04:58.096Z,96061.81
2022-09-28T14:10:19.189Z,96070.19
2022-09-28T14:12:49.187Z,96073.50
2022-09-28T14:15:46.881Z,96064.81
2022-09-28T14:18:29.787Z,96072.47
2022-09-28T14:21:13.289Z,96065.00
2022-09-28T14:24:00.031Z,96073.81
2022-09-28T14:27:09.351Z,96066.47
2022-09-28T14:29:38.808Z,96080.44
2022-09-28T14:32:22.491Z,96070.72
2022-09-28T14:34:58.068Z,96080.63
2022-09-28T14:37:48.846Z,96074.16
2022-09-28T14:40:39.247Z,96074.16
2022-09-28T14:43:24.670Z,96083.13
2022-09-28T14:45:54.487Z,96085.81
2022-09-28T14:48:23.442Z,96078.88
2022-09-28T14:50:51.435Z,96083.22
2022-09-28T14:53:25.565Z,96090.34
2022-09-28T14:55:58.690Z,96088.38
2022-09-28T14:58:28.809Z,96086.94
2022-09-28T15:01:06.233Z,96095.75
2022-09-28T15:03:36.414Z,96100.06
2022-09-28T15:06:03.962Z,96104.03
2022-09-28T15:08:40.836Z,96102.25
2022-09-28T15:11:14.775Z,96099.09
2022-09-28T15:13:43.528Z,96104.47
2022-09-28T15:16:14.050Z,96108.78
2022-09-28T15:19:04.076Z,96107.75
2022-09-28T15:21:39.927Z,96105.16
2022-09-28T15:24:30.586Z,96106.94
2022-09-28T15:26:58.809Z,96115.63
2022-09-28T15:29:28.118Z,96116.88
2022-09-28T15:31:55.644Z,96112.41
2022-09-28T15:34:46.320Z,96109.22
2022-09-28T15:37:16.276Z,96115.41
2022-09-28T15:39:48.359Z,96112.22
2022-09-28T15:42:17.505Z,96119.00
2022-09-28T15:45:02.911Z,96121.25
2022-09-28T15:47:31.848Z,96117.56
2022-09-28T15:50:02.116Z,96124.00
2022-09-28T15:52:36.056Z,96121.88
2022-09-28T15:55:16.990Z,96130.91
2022-09-28T15:57:44.688Z,96129.75
2022-09-28T16:00:26.431Z,96135.25
2022-09-28T16:03:02.240Z,96130.06
2022-09-28T16:05:35.771Z,96129.56
2022-09-28T16:08:04.362Z,96131.50
2022-09-28T16:10:35.870Z,96143.84
2022-09-28T16:13:16.039Z,96138.03
2022-09-28T16:15:43.851Z,96147.88
2022-09-28T16:18:22.081Z,96146.19
2022-09-28T16:20:51.950Z,96149.84
2022-09-28T16:23:24.051Z,96152.94
2022-09-28T16:25:56.558Z,96149.09
2022-09-28T16:28:51.663Z,96158.81
2022-09-28T16:31:29.547Z,96155.88
2022-09-28T16:34:01.179Z,96160.91
2022-09-28T16:36:39.511Z,96155.88
2022-09-28T16:39:07.133Z,96167.44
2022-09-28T16:41:36.163Z,96160.28
2022-09-28T16:44:03.826Z,96171.34
2022-09-28T16:46:37.198Z,96170.59
2022-09-28T16:49:06.753Z,96181.63
2022-09-28T16:51:34.624Z,96171.44
2022-09-28T16:54:31.380Z,96166.06
2022-09-28T16:57:00.826Z,96178.94
2022-09-28T16:59:29.317Z,96176.25
2022-09-28T17:01:57.549Z,96177.53
2022-09-28T17:04:25.623Z,96181.28
2022-09-28T17:06:54.388Z,96175.34
2022-09-28T17:09:23.082Z,96177.31
2022-09-28T17:11:56.244Z,96178.84
2022-09-28T17:14:26.791Z,96175.13
2022-09-28T17:17:13.904Z,96187.47
2022-09-28T17:19:42.793Z,96178.59
2022-09-28T17:22:10.625Z,96172.97
2022-09-28T17:24:38.203Z,96171.84
2022-09-28T17:27:06.870Z,96178.28
2022-09-28T17:29:35.762Z,96179.91
2022-09-28T17:32:04.954Z,96180.72
2022-09-28T17:34:32.497Z,96179.09
2022-09-28T17:37:00.048Z,96178.84
2022-09-28T17:39:27.821Z,96185.28
2022-09-28T17:41:55.352Z,96190.66
2022-09-28T17:44:22.968Z,96190.09
2022-09-28T17:46:52.246Z,96192.38
2022-09-28T17:49:19.802Z,96187.81
2022-09-28T17:51:47.518Z,96193.44
2022-09-28T17:54:16.864Z,96196.28
2022-09-28T17:56:44.498Z,96204.41
2022-09-28T17:59:14.872Z,96196.53
2022-09-28T18:01:42.641Z,96199.31
2022-09-28T18:04:23.267Z,96199.44
2022-09-28T18:06:55.386Z,96195.22
2022-09-28T18:09:25.324Z,96200.69
2022-09-28T18:12:00.205Z,96201.41
2022-09-28T18:14:28.379Z,96199.53
2022-09-28T18:16:55.955Z,96208.19
2022-09-28T18:19:28.611Z,96203.13
2022-09-28T18:21:59.424Z,96210.06
2022-09-28T18:24:27.125Z,96213.22
2022-09-28T18:26:54.679Z,96213.22
2022-09-28T18:29:22.620Z,96215.25
2022-09-28T18:31:50.258Z,96216.66
2022-09-28T18:34:18.086Z,96220.16
2022-09-28T18:36:47.104Z,96216.06
2022-09-28T18:39:14.730Z,96225.97
2022-09-28T18:41:43.055Z,96229.97
2022-09-28T18:44:10.935Z,96230.53
2022-09-28T18:46:38.568Z,96237.22
2022-09-28T18:49:06.370Z,96238.28
2022-09-28T18:51:33.968Z,96245.28
2022-09-28T18:54:07.519Z,96243.66
2022-09-28T18:56:37.931Z,96239.91
2022-09-28T18:59:09.957Z,96248.47
2022-09-28T19:01:41.673Z,96252.41
2022-09-28T19:04:10.969Z,96244.63
2022-09-28T19:06:40.614Z,96252.41
2022-09-28T19:09:09.871Z,96255.38
2022-09-28T19:11:37.645Z,96250.50
2022-09-28T19:14:05.248Z,96252.03
2022-09-28T19:16:34.010Z,96250.63
2022-09-28T19:19:02.761Z,96249.25
2022-09-28T19:21:31.292Z,96253.78
2022-09-28T19:24:01.815Z,96256.69
2022-09-28T19:26:31.628Z,96261.75
2022-09-28T19:29:00.053Z,96256.84
2022-09-28T19:31:27.956Z,96270.88
2022-09-28T19:33:55.577Z,96268.91
2022-09-28T19:36:25.177Z,96268.31
2022-09-28T19:38:53.706Z,96266.69
2022-09-28T19:41:40.751Z,96273.94
2022-09-28T19:44:15.733Z,96271.72
2022-09-28T19:46:43.993Z,96281.06
2022-09-28T19:49:13.933Z,96278.63
2022-09-28T19:52:01.687Z,96280.75
2022-09-28T19:54:36.327Z,96289.50
2022-09-28T19:57:07.482Z,96293.72
2022-09-28T19:59:37.586Z,96298.53
2022-09-28T20:02:05.761Z,96300.28
2022-09-28T20:04:33.404Z,96300.28
2022-09-28T20:07:01.693Z,96298.63
2022-09-28T20:09:29.346Z,96306.94
2022-09-28T20:11:57.193Z,96308.53
2022-09-28T20:14:28.144Z,96308.81
2022-09-28T20:17:00.900Z,96307.88
2022-09-28T20:19:28.490Z,96311.84
2022-09-28T20:21:59.386Z,96310.44
2022-09-28T20:24:28.743Z,96311.41
2022-09-28T20:26:56.507Z,96321.09
2022-09-28T20:29:24.271Z,96319.81
2022-09-28T20:31:52.149Z,96322.47
2022-09-28T20:34:21.120Z,96317.34
2022-09-28T20:36:48.697Z,96320.50
2022-09-28T20:39:16.425Z,96325.28
2022-09-28T20:41:45.975Z,96328.41
2022-09-28T20:44:13.670Z,96327.00
2022-09-28T20:46:43.661Z,96329.34
2022-09-28T20:49:11.344Z,96332.03
2022-09-28T20:51:40.248Z,96338.31
2022-09-28T20:54:08.101Z,96338.56
2022-09-28T20:56:38.232Z,96336.91
2022-09-28T20:59:07.534Z,96348.13
2022-09-28T21:01:35.180Z,96342.16
2022-09-28T21:04:04.495Z,96343.31
2022-09-28T21:06:33.994Z,96340.63
2022-09-28T21:09:03.942Z,96343.19
2022-09-28T21:11:32.100Z,96346.13
2022-09-28T21:14:01.629Z,96345.50
2022-09-28T21:16:31.426Z,96342.00
2022-09-28T21:18:59.623Z,96340.84
2022-09-28T21:21:28.082Z,96334.56
2022-09-28T21:23:56.927Z,96331.28
2022-09-28T21:26:27.871Z,96328.84
2022-09-28T21:28:57.477Z,96340.25
2022-09-28T21:31:29.173Z,96341.97
2022-09-28T21:33:57.606Z,96336.19
2022-09-28T21:36:25.363Z,96339.91
2022-09-28T21:38:53.497Z,96341.97
2022-09-28T21:41:21.115Z,96337.09
2022-09-28T21:43:50.052Z,96341.41
2022-09-28T21:46:18.535Z,96339.19
2022-09-28T21:48:46.309Z,96340.22
2022-09-28T21:51:15.364Z,96336.13
2022-09-28T21:53:43.628Z,96334.53
2022-09-28T21:56:13.310Z,96331.03
2022-09-28T21:58:41.324Z,96333.34
2022-09-28T22:01:13.077Z,96325.66
2022-09-28T22:03:41.073Z,96328.19
2022-09-28T22:06:09.182Z,96326.47
2022-09-28T22:08:37.649Z,96325.63
2022-09-28T22:11:07.358Z,96335.16
2022-09-28T22:13:36.601Z,96334.81
2022-09-28T22:16:04.455Z,96343.88
2022-09-28T22:18:34.212Z,96333.84
2022-09-28T22:21:02.789Z,96333.63
2022-09-28T22:23:31.395Z,96334.31
2022-09-28T22:26:00.496Z,96338.03
2022-09-28T22:28:29.092Z,96336.03
2022-09-28T22:30:57.071Z,96338.13
2022-09-28T22:33:25.519Z,96333.00
2022-09-28T22:35:55.015Z,96335.47
2022-09-28T22:38:24.965Z,96334.84
2022-09-28T22:40:54.541Z,96337.16
2022-09-28T22:43:23.341Z,96334.28
2022-09-28T22:45:51.091Z,96335.78
2022-09-28T22:48:18.698Z,96341.94
2022-09-28T22:50:50.322Z,96339.69
2022-09-28T22:53:19.895Z,96335.63
2022-09-28T22:55:47.477Z,96332.94
2022-09-28T22:58:15.162Z,96328.63
2022-09-28T23:00:43.163Z,96326.38
2022-09-28T23:03:10.988Z,96336.41
2022-09-28T23:05:38.658Z,96335.72
2022-09-28T23:08:06.421Z,96346.44
2022-09-28T23:10:35.374Z,96347.84
2022-09-28T23:13:02.942Z,96350.50
2022-09-28T23:15:30.550Z,96356.06
2022-09-28T23:17:58.110Z,96355.72
2022-09-28T23:20:25.967Z,96349.53
2022-09-28T23:22:53.760Z,96351.03
2022-09-28T23:25:21.375Z,96353.72
2022-09-28T23:27:51.593Z,96353.59
2022-09-28T23:30:21.048Z,96353.13
2022-09-28T23:32:48.621Z,96365.91
2022-09-28T23:35:16.346Z,96359.16
2022-09-28T23:37:43.873Z,96361.66
2022-09-28T23:40:11.715Z,96357.38
2022-09-28T23:42:39.279Z,96365.16
2022-09-28T23:45:09.606Z,96362.94
2022-09-28T23:47:38.204Z,96357.22
2022-09-28T23:50:06.830Z,96358.06
2022-09-28T23:52:34.973Z,96357.81
2022-09-28T23:55:02.602Z,96355.84
2022-09-28T23:57:30.182Z,96350.31
2022-09-28T23:59:58.604Z,96354.66
